Time;durP1;ratioP1;P1;durP2;ratioP2;P2;SDS_P1;SDS_P2;PMS_P1;PMS_P2;Temp;Humidity;BMP_temperature;BMP_pressure;BME280_temperature;BME280_humidity;BME280_pressure;Samples;Min_cycle;Max_cycle;Signal;HPM_P1;HPM_P2
2022/12/10 08:17:45;;;;;;;18.97;7.00;;;0.40;99.90;;;;;;2270337;23;20234;-73
2022/12/10 08:20:12;;;;;;;19.23;7.17;;;0.50;99.90;;;;;;4897628;29;20210;-74
2022/12/10 08:22:39;;;;;;;20.50;8.03;;;0.50;99.90;;;;;;4898185;29;20217;-74
2022/12/10 08:25:07;;;;;;;27.73;7.47;;;0.50;99.90;;;;;;4897840;29;20230;-74
2022/12/10 08:27:33;;;;;;;19.97;7.30;;;0.60;99.90;;;;;;4897471;29;20210;-74
2022/12/10 08:30:00;;;;;;;20.47;7.07;;;0.50;99.90;;;;;;4900937;29;20213;-75
2022/12/10 08:32:27;;;;;;;21.77;7.40;;;0.30;99.90;;;;;;4903362;29;20314;-73
2022/12/10 08:34:55;;;;;;;16.70;6.73;;;0.20;99.90;;;;;;4900564;29;20223;-74
2022/12/10 08:37:22;;;;;;;20.00;6.70;;;0.20;99.90;;;;;;4892258;29;20678;-75
2022/12/10 08:39:49;;;;;;;21.97;7.10;;;0.20;99.90;;;;;;4892535;29;20203;-75
2022/12/10 08:42:16;;;;;;;23.37;9.00;;;0.20;99.90;;;;;;4892887;29;20202;-78
2022/12/10 08:44:43;;;;;;;18.73;7.57;;;0.40;99.90;;;;;;4894182;29;20245;-74
2022/12/10 08:47:10;;;;;;;25.00;8.90;;;0.40;99.90;;;;;;4891307;29;20206;-74
2022/12/10 08:49:36;;;;;;;26.43;8.97;;;0.50;99.90;;;;;;4892027;29;20210;-74
2022/12/10 08:52:05;;;;;;;22.57;7.97;;;0.50;99.90;;;;;;4891939;29;20225;-74
2022/12/10 08:54:32;;;;;;;24.63;9.13;;;0.50;99.90;;;;;;4894936;29;20769;-75
2022/12/10 08:56:58;;;;;;;35.53;11.90;;;0.50;99.90;;;;;;4900458;29;20206;-76
2022/12/10 08:59:25;;;;;;;21.30;8.20;;;0.50;99.90;;;;;;4903602;29;20242;-75
2022/12/10 09:01:52;;;;;;;27.63;10.20;;;0.70;99.90;;;;;;4904182;29;20271;-73
2022/12/10 09:04:19;;;;;;;28.50;9.67;;;1.00;99.90;;;;;;4904033;29;20230;-74
2022/12/10 09:06:46;;;;;;;30.17;9.97;;;0.70;99.90;;;;;;4903724;29;20580;-74
2022/12/10 09:09:14;;;;;;;22.43;8.37;;;0.60;99.90;;;;;;4903732;29;20214;-73
2022/12/10 09:11:41;;;;;;;26.17;8.57;;;0.60;99.90;;;;;;4904186;29;20216;-74
2022/12/10 09:14:08;;;;;;;22.30;9.37;;;0.60;99.90;;;;;;4903607;29;20230;-75
2022/12/10 09:16:38;;;;;;;25.73;10.20;;;0.50;99.90;;;;;;4904018;29;20218;-75
2022/12/10 09:19:06;;;;;;;21.97;9.53;;;0.50;99.90;;;;;;4903518;29;20238;-75
2022/12/10 09:21:33;;;;;;;24.67;10.00;;;0.40;99.90;;;;;;4904002;29;20301;-75
2022/12/10 09:24:00;;;;;;;24.47;7.70;;;0.30;99.90;;;;;;4904050;29;20214;-74
2022/12/10 09:26:28;;;;;;;25.30;8.77;;;0.30;99.90;;;;;;4904094;29;20211;-75
2022/12/10 09:28:57;;;;;;;29.87;9.80;;;0.30;99.90;;;;;;4904046;29;20293;-75
2022/12/10 09:31:24;;;;;;;29.93;9.47;;;0.50;99.90;;;;;;4903833;29;20210;-75
2022/12/10 09:33:53;;;;;;;29.40;8.83;;;0.60;99.90;;;;;;4903602;29;20673;-75
2022/12/10 09:36:21;;;;;;;25.40;9.13;;;0.70;99.90;;;;;;4903773;29;20246;-76
2022/12/10 09:38:49;;;;;;;34.03;10.17;;;0.90;99.90;;;;;;4903719;29;20248;-74
2022/12/10 09:41:37;;;;;;;28.43;10.20;;;1.10;99.90;;;;;;4901356;29;20210;-75
2022/12/10 09:44:09;;;;;;;20.73;7.93;;;1.30;99.90;;;;;;4900628;29;20214;-75
2022/12/10 09:46:47;;;;;;;26.17;9.03;;;1.30;99.90;;;;;;4900516;29;20672;-75
2022/12/10 09:49:23;;;;;;;27.17;9.43;;;1.20;99.90;;;;;;4900726;29;20214;-75
2022/12/10 09:51:51;;;;;;;24.90;8.73;;;1.10;99.90;;;;;;4900745;29;20217;-76
2022/12/10 09:54:23;;;;;;;28.60;9.20;;;1.20;99.90;;;;;;4900512;29;20230;-75
2022/12/10 09:56:53;;;;;;;20.70;8.10;;;1.10;99.90;;;;;;4900470;29;20210;-76
2022/12/10 09:59:24;;;;;;;23.57;9.00;;;1.10;99.90;;;;;;4900404;29;20284;-73
2022/12/10 10:01:59;;;;;;;18.97;7.10;;;1.00;99.90;;;;;;4900391;29;20207;-75
2022/12/10 10:04:27;;;;;;;29.57;9.97;;;1.20;99.90;;;;;;4900456;29;20232;-73
2022/12/10 10:06:53;;;;;;;26.90;9.63;;;1.10;99.90;;;;;;4900273;29;20211;-74
2022/12/10 10:09:21;;;;;;;28.60;9.57;;;1.30;99.90;;;;;;4900165;29;20218;-75
2022/12/10 10:11:49;;;;;;;27.83;9.47;;;1.50;99.90;;;;;;4899930;29;20211;-75
2022/12/10 10:14:23;;;;;;;30.53;10.40;;;1.60;99.90;;;;;;4900433;29;20302;-74
2022/12/10 10:16:54;;;;;;;26.83;10.87;;;1.70;99.90;;;;;;4900578;29;20692;-75
2022/12/10 10:19:27;;;;;;;28.70;9.97;;;1.70;99.90;;;;;;4900009;29;20242;-75
2022/12/10 10:21:55;;;;;;;22.63;9.10;;;1.80;99.90;;;;;;4900221;29;20210;-74
2022/12/10 10:24:25;;;;;;;21.70;7.97;;;1.80;99.90;;;;;;4899754;29;20701;-74
2022/12/10 10:26:53;;;;;;;25.20;9.10;;;1.80;99.90;;;;;;4900198;29;20220;-75
2022/12/10 10:29:26;;;;;;;31.67;9.50;;;1.60;99.90;;;;;;4899933;29;20253;-74
2022/12/10 10:32:13;;;;;;;21.40;8.43;;;1.70;99.90;;;;;;4900475;29;20214;-74
2022/12/10 10:34:41;;;;;;;23.07;8.63;;;1.60;99.90;;;;;;4899828;29;20230;-74
2022/12/10 10:37:14;;;;;;;25.47;9.17;;;1.60;99.90;;;;;;4899800;29;20214;-74
2022/12/10 10:39:48;;;;;;;26.33;9.93;;;1.60;99.90;;;;;;4899719;29;20329;-73
2022/12/10 10:42:26;;;;;;;24.57;8.50;;;1.60;99.90;;;;;;4899797;29;20630;-74
2022/12/10 10:44:54;;;;;;;21.00;8.63;;;1.50;99.90;;;;;;4899408;29;20660;-73
2022/12/10 10:47:29;;;;;;;26.47;9.47;;;1.50;99.90;;;;;;4899326;29;20298;-74
2022/12/10 10:49:56;;;;;;;26.90;9.93;;;1.70;99.90;;;;;;4898789;29;20673;-74
2022/12/10 10:52:23;;;;;;;26.67;9.27;;;1.70;99.90;;;;;;4899154;29;20210;-74
2022/12/10 10:54:50;;;;;;;27.47;9.40;;;1.80;99.90;;;;;;4897750;29;20222;-74
2022/12/10 10:57:23;;;;;;;30.77;8.70;;;1.80;99.90;;;;;;4899481;29;20219;-75
2022/12/10 10:59:52;;;;;;;21.50;8.33;;;1.80;99.90;;;;;;4899260;29;20245;-74
2022/12/10 11:02:25;;;;;;;24.93;8.63;;;1.70;99.90;;;;;;4899548;29;20210;-75
2022/12/10 11:04:54;;;;;;;26.20;9.90;;;1.80;99.90;;;;;;4899295;29;20785;-73
2022/12/10 11:07:26;;;;;;;26.73;8.70;;;1.80;99.90;;;;;;4899146;29;20221;-74
2022/12/10 11:09:55;;;;;;;29.20;9.90;;;1.80;99.90;;;;;;4898933;29;20219;-75
2022/12/10 11:12:33;;;;;;;21.07;8.57;;;1.80;99.90;;;;;;4898768;29;20700;-75
2022/12/10 11:15:00;;;;;;;24.77;9.47;;;1.90;99.90;;;;;;4898633;29;20256;-75
2022/12/10 11:17:29;;;;;;;27.77;9.77;;;2.10;99.90;;;;;;4898759;29;20224;-74
2022/12/10 11:19:59;;;;;;;26.27;9.13;;;2.00;99.90;;;;;;4898121;29;20241;-74
2022/12/10 11:22:28;;;;;;;23.83;8.47;;;1.90;99.90;;;;;;4898835;29;20274;-74
2022/12/10 11:24:55;;;;;;;29.77;9.37;;;2.00;99.90;;;;;;4898878;29;20233;-74
2022/12/10 11:27:37;;;;;;;28.80;9.23;;;2.10;99.90;;;;;;4898313;29;20305;-74
2022/12/10 11:30:06;;;;;;;21.40;7.87;;;2.10;99.90;;;;;;4898467;29;20210;-74
2022/12/10 11:32:52;;;;;;;25.07;8.70;;;2.10;99.90;;;;;;4898756;29;20293;-73
2022/12/10 11:35:24;;;;;;;23.10;7.43;;;2.10;99.90;;;;;;4897953;29;20226;-73
2022/12/10 11:38:01;;;;;;;28.70;9.87;;;2.10;99.90;;;;;;4898264;29;20207;-73
2022/12/10 11:40:34;;;;;;;26.77;8.27;;;2.10;99.90;;;;;;4898771;29;20244;-73
2022/12/10 11:43:37;;;;;;;30.03;9.67;;;2.20;99.90;;;;;;4898483;29;20211;-74
2022/12/10 11:46:14;;;;;;;22.90;8.00;;;2.30;99.90;;;;;;4889120;29;20321;-74
2022/12/10 11:48:55;;;;;;;21.50;7.80;;;2.20;99.90;;;;;;4898543;29;20220;-75
2022/12/10 11:51:31;;;;;;;26.80;8.43;;;2.10;99.90;;;;;;4898303;29;20312;-73
2022/12/10 11:54:20;;;;;;;29.57;9.20;;;2.10;99.90;;;;;;4898322;29;20305;-73
2022/12/10 11:56:53;;;;;;;24.00;8.07;;;2.00;99.90;;;;;;4897896;29;20224;-74
2022/12/10 11:59:28;;;;;;;23.27;8.57;;;2.10;99.90;;;;;;4897538;29;20713;-73
2022/12/10 12:02:12;;;;;;;24.13;8.87;;;2.10;99.90;;;;;;4897607;29;20663;-74
2022/12/10 12:04:58;;;;;;;20.07;7.40;;;2.20;99.90;;;;;;4897186;29;20308;-73
2022/12/10 12:07:39;;;;;;;18.57;6.97;;;2.20;99.90;;;;;;4897942;29;20583;-73
2022/12/10 12:10:35;;;;;;;13.07;5.77;;;2.10;99.90;;;;;;4897420;29;20374;-73
2022/12/10 12:13:08;;;;;;;17.50;6.90;;;2.10;99.90;;;;;;4898046;29;20576;-73
2022/12/10 12:15:40;;;;;;;22.50;8.07;;;2.10;99.90;;;;;;4897424;29;20237;-73
2022/12/10 12:18:17;;;;;;;27.13;8.87;;;2.00;99.90;;;;;;4889931;29;20356;-73
2022/12/10 12:20:49;;;;;;;23.63;7.17;;;1.90;99.90;;;;;;4878074;29;20234;-73
2022/12/10 12:23:20;;;;;;;21.00;7.10;;;2.00;99.90;;;;;;4878089;29;20211;-74
2022/12/10 12:25:49;;;;;;;21.03;8.10;;;2.10;99.90;;;;;;4881279;29;20231;-73
2022/12/10 12:28:21;;;;;;;27.40;9.13;;;2.20;99.90;;;;;;4885444;29;20215;-73
2022/12/10 12:30:53;;;;;;;17.20;6.40;;;2.30;99.90;;;;;;4888357;29;20283;-76
2022/12/10 12:33:29;;;;;;;24.23;8.50;;;2.30;99.90;;;;;;4894238;29;20214;-74
2022/12/10 12:36:01;;;;;;;22.83;7.83;;;2.50;99.90;;;;;;4901242;29;20226;-75
2022/12/10 12:38:33;;;;;;;20.87;7.63;;;2.40;99.90;;;;;;4878075;29;20254;-75
2022/12/10 12:41:06;;;;;;;29.00;8.97;;;2.40;99.90;;;;;;4877548;29;20306;-74
2022/12/10 12:43:43;;;;;;;26.90;7.43;;;2.40;99.90;;;;;;4877694;29;20215;-75
2022/12/10 12:46:17;;;;;;;27.00;7.67;;;2.30;99.90;;;;;;4891212;29;20683;-73
2022/12/10 12:48:52;;;;;;;28.33;8.53;;;2.10;99.90;;;;;;4896172;29;20217;-73
2022/12/10 12:51:25;;;;;;;26.87;8.90;;;2.20;99.90;;;;;;4896103;29;20216;-73
2022/12/10 12:53:52;;;;;;;31.73;8.53;;;2.50;99.90;;;;;;4896018;29;20684;-73
2022/12/10 12:56:29;;;;;;;22.13;9.13;;;2.50;99.90;;;;;;4896290;29;20728;-73
2022/12/10 12:59:04;;;;;;;26.20;9.40;;;2.70;99.90;;;;;;4895712;29;20301;-73
2022/12/10 13:01:36;;;;;;;25.50;9.97;;;2.70;99.90;;;;;;4895953;29;20216;-74
2022/12/10 13:04:04;;;;;;;27.47;8.63;;;2.70;99.90;;;;;;4896077;29;20241;-73
2022/12/10 13:06:35;;;;;;;32.53;9.43;;;2.70;99.90;;;;;;4896320;29;20215;-73
2022/12/10 13:09:23;;;;;;;29.43;9.30;;;2.80;99.90;;;;;;4895584;29;20692;-73
2022/12/10 13:12:26;;;;;;;24.33;7.47;;;2.80;99.90;;;;;;4895855;29;20214;-73
2022/12/10 13:15:14;;;;;;;28.40;9.30;;;2.80;99.90;;;;;;4895353;29;20229;-73
2022/12/10 13:18:03;;;;;;;23.10;8.20;;;2.70;99.90;;;;;;4862300;29;1093015;-73
2022/12/10 13:20:32;;;;;;;27.97;9.00;;;3.00;99.90;;;;;;4900237;29;20238;-73
2022/12/10 13:23:02;;;;;;;26.23;8.43;;;2.90;99.90;;;;;;4900281;29;20518;-73
2022/12/10 13:25:41;;;;;;;26.00;7.93;;;2.80;99.90;;;;;;4900338;29;20232;-72
2022/12/10 13:28:23;;;;;;;23.23;8.17;;;2.80;99.90;;;;;;4900425;29;20216;-73
2022/12/10 13:31:34;;;;;;;22.87;9.20;;;2.80;99.90;;;;;;4899914;29;20218;-73
2022/12/10 13:34:20;;;;;;;28.20;7.73;;;2.90;99.90;;;;;;4899584;29;20219;-73
2022/12/10 13:37:19;;;;;;;23.20;7.53;;;2.90;99.90;;;;;;4899630;29;20678;-73
2022/12/10 13:40:00;;;;;;;22.03;7.80;;;2.80;99.90;;;;;;4899821;29;20238;-73
2022/12/10 13:45:31;;;;;;;17.77;7.23;;;2.70;99.90;;;;;;4900326;29;20253;-72
2022/12/10 13:48:36;;;;;;;22.03;7.33;;;2.60;99.90;;;;;;4899947;29;20301;-73
2022/12/10 13:51:21;;;;;;;21.23;7.50;;;2.60;99.90;;;;;;4899251;29;20682;-73
2022/12/10 13:54:02;;;;;;;26.07;8.03;;;2.90;99.90;;;;;;4899439;29;20214;-73
2022/12/10 13:56:37;;;;;;;30.33;8.83;;;2.90;99.90;;;;;;4899227;29;20757;-73
2022/12/10 13:59:21;;;;;;;23.27;7.00;;;3.00;99.90;;;;;;4899848;29;20216;-74
2022/12/10 14:01:56;;;;;;;21.43;7.77;;;2.90;99.90;;;;;;4900094;29;20210;-73
2022/12/10 14:04:46;;;;;;;22.80;8.33;;;2.90;99.90;;;;;;4899966;29;20226;-73
2022/12/10 14:07:16;;;;;;;20.33;7.53;;;3.10;99.90;;;;;;4899672;29;20215;-73
2022/12/10 14:09:49;;;;;;;22.10;8.20;;;3.00;99.90;;;;;;4899654;29;20295;-73
2022/12/10 14:12:19;;;;;;;23.60;7.17;;;2.90;99.90;;;;;;4899945;29;20566;-73
2022/12/10 14:14:51;;;;;;;23.33;6.63;;;2.90;99.90;;;;;;4900159;29;20260;-73
2022/12/10 14:17:21;;;;;;;17.27;6.53;;;2.90;99.90;;;;;;4899550;29;20222;-73
2022/12/10 14:19:54;;;;;;;25.23;6.93;;;2.80;99.90;;;;;;4900030;29;20234;-73
2022/12/10 14:22:29;;;;;;;25.00;5.80;;;2.80;99.90;;;;;;4899786;29;20218;-74
2022/12/10 14:25:00;;;;;;;19.33;6.17;;;2.80;99.90;;;;;;4899544;29;20825;-73
2022/12/10 14:27:29;;;;;;;17.97;6.83;;;2.90;99.90;;;;;;4899311;29;20301;-74
2022/12/10 14:30:02;;;;;;;22.60;6.43;;;2.90;99.90;;;;;;4899280;29;20211;-73
2022/12/10 14:32:33;;;;;;;21.57;7.23;;;2.80;99.90;;;;;;4899107;29;20224;-74
2022/12/10 14:35:01;;;;;;;30.30;7.43;;;3.00;99.90;;;;;;4899348;29;20702;-73
2022/12/10 14:37:30;;;;;;;23.00;6.73;;;3.00;99.90;;;;;;4899329;29;20229;-74
2022/12/10 14:39:57;;;;;;;27.30;7.33;;;2.80;99.90;;;;;;4899400;29;20328;-73
2022/12/10 14:42:24;;;;;;;23.47;7.90;;;2.60;99.90;;;;;;4899371;29;20287;-73
2022/12/10 14:44:58;;;;;;;19.40;7.13;;;2.50;99.90;;;;;;4899650;29;20234;-74
2022/12/10 14:47:25;;;;;;;25.27;8.50;;;2.50;99.90;;;;;;4899133;29;20210;-74
2022/12/10 14:49:55;;;;;;;28.97;9.13;;;2.50;99.90;;;;;;4890574;29;20219;-72
2022/12/10 14:52:24;;;;;;;21.57;6.67;;;2.50;99.90;;;;;;4897690;29;20419;-71
2022/12/10 14:54:52;;;;;;;17.37;6.90;;;2.40;99.90;;;;;;4897701;29;20260;-70
2022/12/10 14:57:25;;;;;;;23.00;7.40;;;2.20;99.90;;;;;;4897142;29;20222;-70
2022/12/10 15:00:00;;;;;;;24.80;6.80;;;2.20;99.90;;;;;;4891898;29;20235;-70
2022/12/10 15:02:31;;;;;;;16.60;7.23;;;2.30;99.90;;;;;;4878450;29;20226;-69
2022/12/10 15:04:58;;;;;;;26.57;7.07;;;2.30;99.90;;;;;;4878363;29;20576;-70
2022/12/10 15:07:31;;;;;;;21.13;6.07;;;2.30;99.90;;;;;;4878396;29;20393;-70
2022/12/10 15:09:59;;;;;;;21.27;7.50;;;2.20;99.90;;;;;;4876580;29;20612;-71
2022/12/10 15:12:32;;;;;;;25.00;7.30;;;2.30;99.90;;;;;;4893168;29;20221;-72
2022/12/10 15:15:08;;;;;;;21.30;7.53;;;2.30;99.90;;;;;;4897248;29;20278;-72
2022/12/10 15:17:38;;;;;;;19.67;7.33;;;2.30;99.90;;;;;;4880370;29;20223;-70
2022/12/10 15:20:18;;;;;;;17.57;6.53;;;2.20;99.90;;;;;;4877240;29;20245;-70
2022/12/10 15:22:45;;;;;;;21.10;6.73;;;2.10;99.90;;;;;;4880128;29;20217;-73
